Terminal Aerodrome Forecast
Issued by NWS

Current Version | Previous Version | Text Only | Print | Product List | Glossary On
Versions: 1 2 3 4 5 6 7 8 9 10 11 12 13 14 15 16 17
000
FTUS46 KMTR 261737
TAFSTS
TAF
KSTS 261737Z 2618/2718 VRB04KT P6SM BKN010
     FM261900 19008KT P6SM FEW200
     FM270300 14004KT P6SM SKC
     FM270700 15004KT P6SM BKN012
     FM271000 VRB02KT P6SM OVC008=

USA.gov is the U.S. government's official web portal to all federal, state and local government web resources and services.